Terminal Aerodrome Forecast
Issued by NWS

Home | Current Version | Previous Version | Graphics & Text | Print | Product List | Glossary On
Versions: 1 2 3 4 5 6 7 8 9 10 11 12 13 14 15 16 17 18
000
FTUS43 KMPX 290500
TAFRNH
TAF
KRNH 290523Z 2906/3006 29012G20KT P6SM SCT015 BKN020 OVC050
     FM290900 30012KT P6SM SCT010 OVC015
     FM291800 28008KT P6SM BKN025
     FM292100 27006KT P6SM SCT040=

USA.gov is the U.S. government's official web portal to all federal, state and local government web resources and services.